createdAt,value
2018-02-12T00:00:31.871Z,22.1
2018-02-12T00:01:31.987Z,22.1
2018-02-12T00:02:31.858Z,22.1
2018-02-12T00:03:31.796Z,22.1
2018-02-12T00:04:31.779Z,22.1
2018-02-12T00:05:31.365Z,22.1
2018-02-12T00:06:31.460Z,22.2
2018-02-12T00:07:31.404Z,22.2
2018-02-12T00:08:31.143Z,22.2
2018-02-12T00:09:31.149Z,22.3
2018-02-12T00:10:31.095Z,22.2
2018-02-12T00:11:31.025Z,22.2
2018-02-12T00:12:31.061Z,22.2
2018-02-12T00:13:30.965Z,22.2
2018-02-12T00:14:30.763Z,22.2
2018-02-12T00:15:30.632Z,22.2
2018-02-12T00:16:30.673Z,22.2
2018-02-12T00:17:30.721Z,22.2
2018-02-12T00:18:30.417Z,22.2
2018-02-12T00:19:30.461Z,22.3
2018-02-12T00:20:30.492Z,22.2
2018-02-12T00:21:30.331Z,22.2
2018-02-12T00:22:30.238Z,22.2
2018-02-12T00:23:30.021Z,22.2
2018-02-12T00:24:30.517Z,22.2
2018-02-12T00:25:30.158Z,22.2
2018-02-12T00:26:30.078Z,22.2
2018-02-12T00:27:29.803Z,22.2
2018-02-12T00:28:29.946Z,22.2
2018-02-12T00:29:29.725Z,22.1
2018-02-12T00:30:29.710Z,22.2
2018-02-12T00:31:29.736Z,22.2
2018-02-12T00:32:29.490Z,22.1
2018-02-12T00:33:29.514Z,22.1
2018-02-12T00:34:29.446Z,22.1
2018-02-12T00:35:29.367Z,22.1
2018-02-12T00:36:29.182Z,22.1
2018-02-12T00:37:29.324Z,22.1
2018-02-12T00:38:29.440Z,22.1
2018-02-12T00:39:29.124Z,22.1
2018-02-12T00:40:29.139Z,22.1
2018-02-12T00:41:28.964Z,22.1
2018-02-12T00:42:28.883Z,22.1
2018-02-12T00:43:28.920Z,22.1
2018-02-12T00:44:28.740Z,22.1
2018-02-12T00:45:29.023Z,22
2018-02-12T00:46:28.553Z,22
2018-02-12T00:47:28.418Z,22
2018-02-12T00:48:28.573Z,22
2018-02-12T00:49:28.394Z,22
2018-02-12T00:50:28.448Z,22
2018-02-12T00:51:28.260Z,22
2018-02-12T00:52:28.204Z,22
2018-02-12T00:53:28.163Z,22
2018-02-12T00:54:28.154Z,22
2018-02-12T00:55:27.869Z,22
2018-02-12T00:56:27.913Z,22.1
2018-02-12T00:57:27.848Z,22.1
2018-02-12T00:58:27.991Z,22.1
2018-02-12T00:59:27.698Z,22.1
2018-02-12T01:00:27.537Z,22.1
2018-02-12T01:01:27.558Z,22.1
2018-02-12T01:02:27.467Z,22.1
2018-02-12T01:03:27.371Z,22.1
2018-02-12T01:04:27.459Z,22.1
2018-02-12T01:05:27.398Z,22.1
2018-02-12T01:06:27.364Z,22.1
2018-02-12T01:07:27.650Z,22.1
2018-02-12T01:08:27.089Z,22.1
2018-02-12T01:09:27.127Z,22.1
2018-02-12T01:10:26.941Z,22.1
2018-02-12T01:11:27.209Z,22.1
2018-02-12T01:12:26.703Z,22.1
2018-02-12T01:13:26.633Z,22.1
2018-02-12T01:14:26.772Z,22
2018-02-12T01:15:26.441Z,22
2018-02-12T01:16:26.539Z,22
2018-02-12T01:17:26.510Z,22
2018-02-12T01:18:26.399Z,22
2018-02-12T01:19:26.428Z,22
2018-02-12T01:20:26.356Z,22
2018-02-12T01:21:26.192Z,22
2018-02-12T01:22:26.126Z,22
2018-02-12T01:23:26.264Z,22
2018-02-12T01:24:26.004Z,22
2018-02-12T01:25:25.861Z,22
2018-02-12T01:26:25.852Z,22
2018-02-12T01:27:25.889Z,21.9
2018-02-12T01:28:25.932Z,21.9
2018-02-12T01:29:25.853Z,21.9
2018-02-12T01:30:25.461Z,21.9
2018-02-12T01:31:25.494Z,21.9
2018-02-12T01:32:25.479Z,21.9
2018-02-12T01:33:25.524Z,21.9
2018-02-12T01:34:25.370Z,21.9
2018-02-12T01:35:25.459Z,21.9
2018-02-12T01:36:25.329Z,21.9
2018-02-12T01:37:25.090Z,21.9
2018-02-12T01:38:25.016Z,21.9
2018-02-12T01:39:25.171Z,21.9
2018-02-12T01:40:24.884Z,21.9
2018-02-12T01:41:24.949Z,21.9
2018-02-12T01:42:24.847Z,21.9
2018-02-12T01:43:24.901Z,21.9
2018-02-12T01:44:24.530Z,21.9
2018-02-12T01:45:24.774Z,21.9
2018-02-12T01:46:24.393Z,21.9
2018-02-12T01:47:24.391Z,21.9
2018-02-12T01:48:24.542Z,21.9
2018-02-12T01:49:24.266Z,21.9
2018-02-12T01:50:24.177Z,21.9
2018-02-12T01:51:24.203Z,22
2018-02-12T01:52:23.980Z,22
2018-02-12T01:53:24.174Z,22.1
2018-02-12T01:54:24.206Z,22.1
2018-02-12T01:55:24.126Z,22.1
2018-02-12T01:56:23.989Z,22.1
2018-02-12T01:57:24.007Z,22.1
2018-02-12T01:58:23.641Z,22.1
2018-02-12T01:59:23.580Z,22.1
2018-02-12T02:00:23.497Z,22.1
2018-02-12T02:01:23.355Z,22.1
2018-02-12T02:02:23.378Z,22
2018-02-12T02:03:23.181Z,22
2018-02-12T02:04:23.116Z,22
2018-02-12T02:05:23.254Z,22
2018-02-12T02:06:23.048Z,22
2018-02-12T02:07:23.234Z,22
2018-02-12T02:08:23.590Z,21.9
2018-02-12T02:09:22.985Z,21.9
2018-02-12T02:10:22.817Z,21.9
2018-02-12T02:11:22.686Z,21.9
2018-02-12T02:12:22.950Z,21.9
2018-02-12T02:13:22.961Z,21.9
2018-02-12T02:14:22.422Z,21.9
2018-02-12T02:15:22.362Z,21.9
2018-02-12T02:16:22.331Z,21.9
2018-02-12T02:17:22.442Z,21.9
2018-02-12T02:18:22.278Z,21.9
2018-02-12T02:19:22.369Z,21.9
2018-02-12T02:20:22.119Z,21.9
2018-02-12T02:21:21.957Z,21.9
2018-02-12T02:22:22.128Z,21.9
2018-02-12T02:23:21.907Z,21.9
2018-02-12T02:24:21.865Z,21.9
2018-02-12T02:25:21.772Z,21.9
2018-02-12T02:26:21.635Z,21.9
2018-02-12T02:27:21.651Z,21.9
2018-02-12T02:28:21.590Z,21.9
2018-02-12T02:29:21.415Z,21.9
2018-02-12T02:30:21.751Z,21.9
2018-02-12T02:31:21.381Z,21.9
2018-02-12T02:32:21.397Z,21.9
2018-02-12T02:33:21.709Z,21.9
2018-02-12T02:34:21.271Z,21.9
2018-02-12T02:35:21.391Z,21.9
2018-02-12T02:36:20.918Z,21.9
2018-02-12T02:37:20.840Z,21.9
2018-02-12T02:38:20.842Z,22
2018-02-12T02:39:20.805Z,22
2018-02-12T02:40:20.750Z,22.1
2018-02-12T02:41:20.782Z,22.1
2018-02-12T02:42:20.794Z,22.1
2018-02-12T02:43:20.819Z,22.1
2018-02-12T02:44:20.306Z,22.1
2018-02-12T02:45:20.407Z,22.1
2018-02-12T02:46:20.196Z,22.1
2018-02-12T02:47:20.248Z,22.1
2018-02-12T02:48:20.207Z,22
2018-02-12T02:49:20.351Z,22
2018-02-12T02:50:19.960Z,22
2018-02-12T02:51:20.006Z,22
2018-02-12T02:52:19.852Z,22
2018-02-12T02:53:20.125Z,22
2018-02-12T02:54:19.681Z,22
2018-02-12T02:55:19.839Z,21.9
2018-02-12T02:56:19.764Z,21.9
2018-02-12T02:57:19.500Z,21.9
2018-02-12T02:58:19.600Z,21.9
2018-02-12T02:59:19.429Z,21.9
2018-02-12T03:00:19.657Z,21.9
2018-02-12T03:01:19.306Z,21.9
2018-02-12T03:02:19.115Z,21.9
2018-02-12T03:03:19.163Z,21.9
2018-02-12T03:04:19.238Z,21.9
2018-02-12T03:05:19.038Z,21.9
2018-02-12T03:06:18.845Z,21.9
2018-02-12T03:07:18.894Z,21.9
2018-02-12T03:08:18.815Z,21.9
2018-02-12T03:09:18.615Z,21.9
2018-02-12T03:10:19.025Z,21.9
2018-02-12T03:11:18.994Z,21.9
2018-02-12T03:12:18.821Z,21.9
2018-02-12T03:13:18.563Z,21.9
2018-02-12T03:14:18.604Z,21.9
2018-02-12T03:15:18.436Z,21.9
2018-02-12T03:16:18.457Z,21.9
2018-02-12T03:17:18.048Z,21.9
2018-02-12T03:18:17.985Z,22
2018-02-12T03:19:18.133Z,22.1
2018-02-12T03:20:18.092Z,22.1
2018-02-12T03:21:17.924Z,22.1
2018-02-12T03:22:17.951Z,22.1
2018-02-12T03:23:17.956Z,22.1
2018-02-12T03:24:17.599Z,22.1
2018-02-12T03:25:17.793Z,22.1
2018-02-12T03:26:17.967Z,22.1
2018-02-12T03:27:17.460Z,22.1
2018-02-12T03:28:17.329Z,22.1
2018-02-12T03:29:17.569Z,22
2018-02-12T03:30:17.578Z,22.1
2018-02-12T03:31:17.226Z,22.1
2018-02-12T03:32:17.264Z,22
2018-02-12T03:33:17.097Z,22
2018-02-12T03:34:16.884Z,22
2018-02-12T03:35:16.946Z,22
2018-02-12T03:36:16.883Z,22
2018-02-12T03:37:17.395Z,22
2018-02-12T03:38:16.763Z,22
2018-02-12T03:39:16.576Z,22
2018-02-12T03:40:16.863Z,22
2018-02-12T03:41:16.439Z,22
2018-02-12T03:42:16.366Z,21.9
2018-02-12T03:43:16.394Z,21.9
2018-02-12T03:44:16.262Z,21.9
2018-02-12T03:45:16.433Z,21.9
2018-02-12T03:46:16.118Z,21.9
2018-02-12T03:47:16.435Z,21.9
2018-02-12T03:48:16.157Z,21.9
2018-02-12T03:49:15.965Z,21.9
2018-02-12T03:50:15.898Z,21.9
2018-02-12T03:51:15.851Z,21.9
2018-02-12T03:52:16.059Z,21.9
2018-02-12T03:53:15.821Z,21.9
2018-02-12T03:54:15.816Z,21.9
2018-02-12T03:55:15.787Z,21.9
2018-02-12T03:56:15.908Z,21.9
2018-02-12T03:57:15.440Z,21.9
2018-02-12T03:58:15.437Z,21.9
2018-02-12T03:59:15.580Z,21.9
2018-02-12T04:00:15.554Z,21.9
2018-02-12T04:01:15.279Z,21.9
2018-02-12T04:02:15.380Z,21.9
2018-02-12T04:03:14.949Z,21.9
2018-02-12T04:04:15.047Z,22
2018-02-12T04:05:15.181Z,22.1
2018-02-12T04:06:14.781Z,22.1
2018-02-12T04:07:14.626Z,22.1
2018-02-12T04:08:14.515Z,22.1
2018-02-12T04:09:14.601Z,22.1
2018-02-12T04:10:14.560Z,22.1
2018-02-12T04:11:14.473Z,22
2018-02-12T04:12:14.386Z,22
2018-02-12T04:13:14.275Z,22
2018-02-12T04:14:14.228Z,22
2018-02-12T04:15:14.202Z,22
2018-02-12T04:16:14.123Z,21.9
2018-02-12T04:17:14.046Z,21.9
2018-02-12T04:18:13.908Z,21.9
2018-02-12T04:19:13.933Z,21.9
2018-02-12T04:20:13.739Z,21.9
2018-02-12T04:21:13.932Z,21.9
2018-02-12T04:22:13.924Z,21.9
2018-02-12T04:23:13.575Z,21.9
2018-02-12T04:24:13.576Z,21.9
2018-02-12T04:25:13.622Z,21.9
2018-02-12T04:26:13.452Z,21.9
2018-02-12T04:27:13.470Z,21.9
2018-02-12T04:28:13.404Z,21.9
2018-02-12T04:29:13.337Z,21.9
2018-02-12T04:30:13.027Z,21.9
2018-02-12T04:31:13.337Z,21.9
2018-02-12T04:32:13.220Z,21.9
2018-02-12T04:33:13.231Z,21.9
2018-02-12T04:34:12.997Z,21.9
2018-02-12T04:35:13.297Z,21.9
2018-02-12T04:36:12.757Z,21.9
2018-02-12T04:37:12.580Z,21.9
2018-02-12T04:38:12.601Z,21.9
2018-02-12T04:39:12.529Z,21.9
2018-02-12T04:40:12.372Z,21.9
2018-02-12T04:41:12.400Z,21.9
2018-02-12T04:42:12.448Z,21.9
2018-02-12T04:43:12.171Z,21.9
2018-02-12T04:44:12.402Z,21.9
2018-02-12T04:45:12.135Z,21.9
2018-02-12T04:46:12.061Z,21.9
2018-02-12T04:47:11.926Z,21.9
2018-02-12T04:48:11.909Z,21.9
2018-02-12T04:49:11.758Z,21.9
2018-02-12T04:50:11.903Z,21.9
2018-02-12T04:51:11.887Z,21.9
2018-02-12T04:52:11.535Z,21.9
2018-02-12T04:53:11.514Z,21.9
2018-02-12T04:54:11.496Z,21.9
2018-02-12T04:55:11.576Z,21.9
2018-02-12T04:56:11.276Z,21.9
2018-02-12T04:57:11.359Z,21.9
2018-02-12T04:58:11.516Z,21.9
2018-02-12T04:59:11.173Z,21.9
2018-02-12T05:00:10.981Z,21.9
2018-02-12T05:01:10.876Z,21.9
2018-02-12T05:02:11.025Z,21.9
2018-02-12T05:03:11.166Z,21.9
2018-02-12T05:04:11.043Z,21.9
2018-02-12T05:05:10.954Z,21.9
2018-02-12T05:06:10.610Z,21.9
2018-02-12T05:07:10.818Z,21.9
2018-02-12T05:08:10.442Z,21.9
2018-02-12T05:09:10.607Z,22
2018-02-12T05:10:10.501Z,22
2018-02-12T05:11:10.222Z,22
2018-02-12T05:12:10.429Z,22.1
2018-02-12T05:13:10.483Z,22.1
2018-02-12T05:14:10.232Z,22.1
2018-02-12T05:15:10.153Z,22.1
2018-02-12T05:16:09.993Z,22.1
2018-02-12T05:17:10.483Z,22.2
2018-02-12T05:18:09.836Z,22.2
2018-02-12T05:19:09.842Z,22.2
2018-02-12T05:20:09.704Z,22.2
2018-02-12T05:21:09.824Z,22.3
2018-02-12T05:22:09.806Z,22.3
2018-02-12T05:23:09.618Z,22.3
2018-02-12T05:24:09.440Z,22.2
2018-02-12T05:25:09.221Z,22.2
2018-02-12T05:26:09.552Z,22.2
2018-02-12T05:27:09.306Z,22.2
2018-02-12T05:28:09.272Z,22.2
2018-02-12T05:29:09.409Z,22.2
2018-02-12T05:30:09.139Z,22.2
2018-02-12T05:31:08.944Z,22.2
2018-02-12T05:32:08.780Z,22.1
2018-02-12T05:33:09.212Z,22.1
2018-02-12T05:34:08.755Z,22.1
2018-02-12T05:35:08.720Z,22.1
2018-02-12T05:36:08.441Z,22.1
2018-02-12T05:37:08.865Z,22.1
2018-02-12T05:38:08.520Z,22.1
2018-02-12T05:39:08.287Z,22.1
2018-02-12T05:40:08.332Z,22.1
2018-02-12T05:41:08.543Z,22.1
2018-02-12T05:42:08.177Z,22.1
2018-02-12T05:43:08.444Z,22.1
2018-02-12T05:44:08.341Z,22.1
2018-02-12T05:45:07.824Z,22.1
2018-02-12T05:46:07.925Z,22.1
2018-02-12T05:47:07.780Z,22.1
2018-02-12T05:48:07.788Z,22.1
2018-02-12T05:49:07.620Z,22.1
2018-02-12T05:50:07.644Z,22.1
2018-02-12T05:51:07.431Z,22.1
2018-02-12T05:52:07.604Z,22.1
2018-02-12T05:53:07.612Z,22.1
2018-02-12T05:54:07.468Z,22.1
2018-02-12T05:55:07.312Z,22.1
2018-02-12T05:56:07.527Z,22
2018-02-12T05:57:07.298Z,22
2018-02-12T05:58:07.091Z,22
2018-02-12T05:59:07.138Z,22
2018-02-12T06:00:06.877Z,22
2018-02-12T06:01:07.194Z,21.9
2018-02-12T06:02:07.024Z,21.9
2018-02-12T06:03:06.849Z,21.9
2018-02-12T06:04:06.810Z,21.9
2018-02-12T06:05:06.610Z,21.9
2018-02-12T06:06:06.400Z,21.9
2018-02-12T06:07:06.460Z,21.9
2018-02-12T06:08:06.330Z,21.9
2018-02-12T06:09:06.340Z,21.9
2018-02-12T06:10:06.391Z,21.9
2018-02-12T06:11:06.192Z,21.9
2018-02-12T06:12:06.342Z,21.9
2018-02-12T06:13:06.068Z,21.8
2018-02-12T06:14:05.998Z,21.8
2018-02-12T06:15:05.924Z,21.8
2018-02-12T06:16:05.862Z,21.8
2018-02-12T06:17:05.632Z,21.8
2018-02-12T06:18:05.655Z,21.8
2018-02-12T06:19:05.910Z,21.8
2018-02-12T06:20:05.703Z,21.8
2018-02-12T06:21:05.615Z,21.8
2018-02-12T06:22:05.337Z,21.8
2018-02-12T06:23:05.259Z,21.8
2018-02-12T06:24:05.290Z,21.8
2018-02-12T06:25:05.244Z,21.8
2018-02-12T06:26:05.057Z,21.8
2018-02-12T06:27:05.097Z,21.8
2018-02-12T06:28:05.132Z,21.9
2018-02-12T06:29:05.283Z,21.9
2018-02-12T06:30:04.940Z,21.9
2018-02-12T06:31:04.734Z,21.9
2018-02-12T06:32:04.754Z,22
2018-02-12T06:33:04.588Z,22.1
2018-02-12T06:34:04.665Z,22.1
2018-02-12T06:35:04.853Z,22
2018-02-12T06:36:04.795Z,22.1
2018-02-12T06:37:04.406Z,22
2018-02-12T06:38:04.415Z,22.1
2018-02-12T06:39:04.558Z,22
2018-02-12T06:40:04.496Z,22
2018-02-12T06:41:04.060Z,22
2018-02-12T06:42:04.165Z,22
2018-02-12T06:43:04.124Z,21.9
2018-02-12T06:44:03.917Z,21.9
2018-02-12T06:45:03.866Z,21.9
2018-02-12T06:46:03.847Z,21.9
2018-02-12T06:47:03.988Z,21.9
2018-02-12T06:48:03.751Z,21.9
2018-02-12T06:49:03.875Z,21.9
2018-02-12T06:50:03.811Z,22
2018-02-12T06:51:03.865Z,22
2018-02-12T06:52:03.280Z,22.1
2018-02-12T06:53:03.414Z,22.1
2018-02-12T06:54:03.202Z,22.1
2018-02-12T06:55:03.438Z,22.1
2018-02-12T06:56:03.113Z,22.1
2018-02-12T06:57:03.320Z,22.1
2018-02-12T06:58:03.274Z,22.1
2018-02-12T06:59:02.882Z,22.1
2018-02-12T07:00:02.851Z,22.1
2018-02-12T07:01:02.759Z,22.1
2018-02-12T07:02:02.842Z,22.1
2018-02-12T07:03:02.793Z,22.1
2018-02-12T07:04:02.753Z,22.1
2018-02-12T07:05:02.470Z,22.1
2018-02-12T07:06:02.912Z,22
2018-02-12T07:07:02.347Z,22
2018-02-12T07:08:02.205Z,22
2018-02-12T07:09:02.088Z,22
2018-02-12T07:10:02.309Z,22
2018-02-12T07:11:01.917Z,22
2018-02-12T07:12:02.010Z,21.9
2018-02-12T07:13:02.138Z,22
2018-02-12T07:14:01.871Z,21.9
2018-02-12T07:15:01.956Z,21.9
2018-02-12T07:16:01.720Z,21.9
2018-02-12T07:17:01.551Z,21.9
2018-02-12T07:18:01.764Z,21.9
2018-02-12T07:19:01.603Z,21.9
2018-02-12T07:20:01.467Z,21.9
2018-02-12T07:21:01.368Z,21.9
2018-02-12T07:22:01.321Z,21.9
2018-02-12T07:23:01.261Z,21.9
2018-02-12T07:24:01.673Z,21.9
2018-02-12T07:25:01.285Z,21.9
2018-02-12T07:26:01.142Z,21.9
2018-02-12T07:27:01.092Z,21.9
2018-02-12T07:28:00.901Z,21.9
2018-02-12T07:29:00.759Z,21.9
2018-02-12T07:30:00.880Z,21.9
2018-02-12T07:31:00.706Z,21.9
2018-02-12T07:32:00.728Z,21.9
2018-02-12T07:33:00.869Z,21.9
2018-02-12T07:34:00.372Z,21.9
2018-02-12T07:35:00.468Z,21.9
2018-02-12T07:36:00.465Z,21.9
2018-02-12T07:37:00.744Z,21.9
2018-02-12T07:38:00.196Z,21.9
2018-02-12T07:38:59.972Z,21.9
2018-02-12T07:40:00.082Z,21.9
2018-02-12T07:40:59.860Z,21.9
2018-02-12T07:42:00.152Z,21.9
2018-02-12T07:42:59.970Z,21.9
2018-02-12T07:43:59.811Z,21.9
2018-02-12T07:44:59.959Z,21.9
2018-02-12T07:45:59.837Z,21.9
2018-02-12T07:46:59.583Z,21.9
2018-02-12T07:47:59.530Z,21.9
2018-02-12T07:48:59.538Z,22
2018-02-12T07:49:59.349Z,22
2018-02-12T07:50:59.510Z,22.1
2018-02-12T07:51:59.128Z,22.1
2018-02-12T07:52:59.096Z,22.1
2018-02-12T07:53:59.122Z,22.1
2018-02-12T07:54:59.049Z,22.1
2018-02-12T07:55:59.035Z,22.1
2018-02-12T07:56:58.898Z,22.1
2018-02-12T07:57:58.826Z,22.1
2018-02-12T07:58:58.758Z,22
2018-02-12T07:59:58.917Z,22.1
2018-02-12T08:00:58.696Z,22
2018-02-12T08:01:58.678Z,22
2018-02-12T08:02:58.408Z,22
2018-02-12T08:03:58.804Z,22
2018-02-12T08:04:58.343Z,22
2018-02-12T08:05:58.699Z,21.9
2018-02-12T08:06:58.187Z,21.9
2018-02-12T08:07:58.374Z,21.9
2018-02-12T08:08:58.059Z,21.9
2018-02-12T08:09:57.899Z,21.9
2018-02-12T08:10:57.826Z,21.9
2018-02-12T08:11:57.985Z,21.9
2018-02-12T08:12:57.785Z,21.9
2018-02-12T08:13:57.685Z,21.9
2018-02-12T08:14:57.781Z,21.9
2018-02-12T08:15:57.700Z,21.9
2018-02-12T08:16:57.410Z,21.9
2018-02-12T08:17:57.456Z,21.9
2018-02-12T08:18:57.314Z,21.9
2018-02-12T08:19:57.423Z,21.9
2018-02-12T08:20:57.538Z,21.9
2018-02-12T08:21:57.135Z,21.9
2018-02-12T08:22:57.078Z,21.9
2018-02-12T08:23:57.154Z,21.9
2018-02-12T08:24:56.977Z,21.8
2018-02-12T08:25:56.896Z,21.9
2018-02-12T08:26:56.858Z,21.9
2018-02-12T08:27:56.865Z,21.9
2018-02-12T08:28:56.649Z,21.9
2018-02-12T08:29:56.483Z,21.9
2018-02-12T08:30:56.634Z,21.9
2018-02-12T08:31:56.377Z,21.9
2018-02-12T08:32:56.528Z,21.9
2018-02-12T08:33:56.471Z,22
2018-02-12T08:34:56.409Z,22.1
2018-02-12T08:35:56.209Z,22.1
2018-02-12T08:36:56.038Z,22.1
2018-02-12T08:37:56.067Z,22.1
2018-02-12T08:38:56.257Z,22.1
2018-02-12T08:39:55.832Z,22.1
2018-02-12T08:40:55.762Z,22.1
2018-02-12T08:41:56.068Z,22.1
2018-02-12T08:42:55.637Z,22.1
2018-02-12T08:43:55.499Z,22.1
2018-02-12T08:44:55.575Z,22.1
2018-02-12T08:45:55.382Z,22.1
2018-02-12T08:46:55.346Z,22.1
2018-02-12T08:47:55.390Z,22.1
2018-02-12T08:48:55.242Z,22
2018-02-12T08:49:55.533Z,22.1
2018-02-12T08:50:55.374Z,22.1
2018-02-12T08:51:55.107Z,22
2018-02-12T08:52:54.929Z,22.1
2018-02-12T08:53:55.215Z,22
2018-02-12T08:54:54.833Z,22
2018-02-12T08:55:54.849Z,22
2018-02-12T08:56:54.790Z,22
2018-02-12T08:57:54.818Z,22
2018-02-12T08:58:54.735Z,22.1
2018-02-12T08:59:54.775Z,22.1
2018-02-12T09:00:54.447Z,22.1
2018-02-12T09:01:54.720Z,22.1
2018-02-12T09:02:54.237Z,22.1
2018-02-12T09:03:54.578Z,22.2
2018-02-12T09:04:54.400Z,22.2
2018-02-12T09:05:54.267Z,22.3
2018-02-12T09:06:54.379Z,22.3
2018-02-12T09:07:53.903Z,22.3
2018-02-12T09:08:53.822Z,22.3
2018-02-12T09:09:53.880Z,22.3
2018-02-12T09:10:53.693Z,22.4
2018-02-12T09:11:53.736Z,22.4
2018-02-12T09:12:53.593Z,22.4
2018-02-12T09:13:53.608Z,22.4
2018-02-12T09:14:53.529Z,22.4
2018-02-12T09:15:53.626Z,22.3
2018-02-12T09:16:53.339Z,22.3
2018-02-12T09:17:53.319Z,22.3
2018-02-12T09:18:53.258Z,22.3
2018-02-12T09:19:53.179Z,22.3
2018-02-12T09:20:53.108Z,22.3
2018-02-12T09:21:53.162Z,22.3
2018-02-12T09:22:53.210Z,22.3
2018-02-12T09:23:52.906Z,22.3
2018-02-12T09:24:52.782Z,22.3
2018-02-12T09:25:52.656Z,22.3
2018-02-12T09:26:53.092Z,22.3
2018-02-12T09:27:53.035Z,22.3
2018-02-12T09:28:52.966Z,22.3
2018-02-12T09:29:52.608Z,22.2
2018-02-12T09:30:52.530Z,22.2
2018-02-12T09:31:52.463Z,22.2
2018-02-12T09:32:53.060Z,22.2
2018-02-12T09:33:52.452Z,22.2
2018-02-12T09:34:52.106Z,22.1
2018-02-12T09:35:52.067Z,22.1
2018-02-12T09:36:52.021Z,22.1
2018-02-12T09:37:51.864Z,22.1
2018-02-12T09:38:52.069Z,22.1
2018-02-12T09:39:51.911Z,22.1
2018-02-12T09:40:51.951Z,22.1
2018-02-12T09:41:51.773Z,22.1
2018-02-12T09:42:51.450Z,22.1
2018-02-12T09:43:51.660Z,22.2
2018-02-12T09:44:51.348Z,22.2
2018-02-12T09:45:51.377Z,22.3
2018-02-12T09:46:51.335Z,22.3
2018-02-12T09:47:51.543Z,22.3
2018-02-12T09:48:51.407Z,22.3
2018-02-12T09:49:51.127Z,22.3
2018-02-12T09:50:50.928Z,22.4
2018-02-12T09:51:50.982Z,22.4
2018-02-12T09:52:51.100Z,22.4
2018-02-12T09:53:50.852Z,22.4
2018-02-12T09:54:50.603Z,22.4
2018-02-12T09:55:50.990Z,22.4
2018-02-12T09:56:50.766Z,22.4
2018-02-12T09:57:50.567Z,22.4
2018-02-12T09:58:51.027Z,22.4
2018-02-12T09:59:50.344Z,22.4
2018-02-12T10:00:50.237Z,22.3
2018-02-12T10:01:50.292Z,22.3
2018-02-12T10:02:50.202Z,22.3
2018-02-12T10:03:50.047Z,22.3
2018-02-12T10:04:50.460Z,22.3
2018-02-12T10:05:49.972Z,22.3
2018-02-12T10:06:49.785Z,22.3
2018-02-12T10:07:49.763Z,22.3
2018-02-12T10:08:49.801Z,22.3
2018-02-12T10:09:49.836Z,22.3
2018-02-12T10:10:49.787Z,22.3
2018-02-12T10:11:49.498Z,22.2
2018-02-12T10:12:49.744Z,22.3
2018-02-12T10:13:49.622Z,22.2
2018-02-12T10:14:49.408Z,22.2
2018-02-12T10:15:49.157Z,22.2
2018-02-12T10:16:49.161Z,22.2
2018-02-12T10:17:49.209Z,22.2
2018-02-12T10:18:49.400Z,22.2
2018-02-12T10:19:49.154Z,22.1
2018-02-12T10:20:48.879Z,22.1
2018-02-12T10:21:48.873Z,22.1
2018-02-12T10:22:48.845Z,22.1
2018-02-12T10:23:48.901Z,22.1
2018-02-12T10:24:48.719Z,22.1
2018-02-12T10:25:48.845Z,22.1
2018-02-12T10:26:48.569Z,22.1
2018-02-12T10:27:48.417Z,22.1
2018-02-12T10:28:48.438Z,22.1
2018-02-12T10:29:48.243Z,22.1
2018-02-12T10:30:48.515Z,22.1
2018-02-12T10:31:48.314Z,22.1
2018-02-12T10:32:48.383Z,22.1
2018-02-12T10:33:48.089Z,22.1
2018-02-12T10:34:48.019Z,22.1
2018-02-12T10:35:48.342Z,22.1
2018-02-12T10:36:47.752Z,22.1
2018-02-12T10:37:47.773Z,22.1
2018-02-12T10:38:48.076Z,22
2018-02-12T10:39:47.663Z,22
2018-02-12T10:40:47.703Z,22
2018-02-12T10:41:47.741Z,22
2018-02-12T10:42:47.659Z,22
2018-02-12T10:43:47.382Z,22
2018-02-12T10:44:47.321Z,22
2018-02-12T10:45:47.251Z,21.9
2018-02-12T10:46:47.186Z,21.9
2018-02-12T10:47:46.950Z,21.9
2018-02-12T10:48:47.060Z,21.9
2018-02-12T10:49:47.004Z,21.9
2018-02-12T10:50:47.016Z,21.9
2018-02-12T10:51:46.845Z,21.9
2018-02-12T10:52:46.668Z,21.9
2018-02-12T10:53:46.864Z,21.9
2018-02-12T10:54:46.672Z,21.9
2018-02-12T10:55:46.469Z,21.9
2018-02-12T10:56:46.486Z,22
2018-02-12T10:57:46.631Z,22.1
2018-02-12T10:58:46.360Z,22.1
2018-02-12T10:59:46.349Z,22.1
2018-02-12T11:00:46.232Z,22.1
2018-02-12T11:01:46.272Z,22.1
2018-02-12T11:02:46.022Z,22.1
2018-02-12T11:03:46.224Z,22.2
2018-02-12T11:04:45.837Z,22.2
2018-02-12T11:05:45.776Z,22.3
2018-02-12T11:06:46.008Z,22.3
2018-02-12T11:07:45.635Z,22.3
2018-02-12T11:08:45.962Z,22.3
2018-02-12T11:09:45.615Z,22.3
2018-02-12T11:10:45.522Z,22.3
2018-02-12T11:11:45.460Z,22.3
2018-02-12T11:12:45.992Z,22.3
2018-02-12T11:13:45.328Z,22.3
2018-02-12T11:14:45.304Z,22.3
2018-02-12T11:15:45.025Z,22.3
2018-02-12T19:50:11.242Z,22.2
2018-02-12T19:51:11.489Z,22.2
2018-02-12T19:52:11.210Z,22.2
2018-02-12T19:53:11.080Z,22.2
2018-02-12T19:54:10.928Z,22.2
2018-02-12T19:55:11.021Z,22.2
2018-02-12T19:56:11.074Z,22.2
2018-02-12T19:57:10.720Z,22.2
2018-02-12T19:58:10.611Z,22.3
2018-02-12T19:59:10.844Z,22.2
2018-02-12T20:00:10.380Z,22.3
2018-02-12T20:01:10.686Z,22.2
2018-02-12T20:02:10.333Z,22.2
2018-02-12T20:03:10.563Z,22.2
2018-02-12T20:04:10.423Z,22.2
2018-02-12T20:05:10.291Z,22.2
2018-02-12T20:06:09.918Z,22.1
2018-02-12T20:07:09.940Z,22.1
2018-02-12T20:08:10.042Z,22.1
2018-02-12T20:09:09.786Z,22.1
2018-02-12T20:10:09.569Z,22.1
2018-02-12T20:11:09.938Z,22.1
2018-02-12T20:12:09.547Z,22.1
2018-02-12T20:13:09.308Z,22.2
2018-02-12T20:14:09.400Z,22.2
2018-02-12T20:15:09.247Z,22.2
2018-02-12T20:16:09.251Z,22.3
2018-02-12T20:17:09.063Z,22.3
2018-02-12T20:18:08.974Z,22.3
2018-02-12T20:19:08.896Z,22.3
2018-02-12T20:20:08.876Z,22.3
2018-02-12T20:21:08.973Z,22.3
2018-02-12T20:22:08.762Z,22.3
2018-02-12T20:23:08.824Z,22.3
2018-02-12T20:24:08.829Z,22.3
2018-02-12T20:25:08.426Z,22.3
2018-02-12T20:26:08.320Z,22.3
2018-02-12T20:27:08.399Z,22.3
2018-02-12T20:28:08.302Z,22.3
2018-02-12T20:29:08.506Z,22.3
2018-02-12T20:30:08.441Z,22.3
2018-02-12T20:31:08.283Z,22.3
2018-02-12T20:32:07.899Z,22.3
2018-02-12T20:33:07.818Z,22.4
2018-02-12T20:34:07.924Z,22.4
2018-02-12T20:35:07.783Z,22.4
2018-02-12T20:36:07.572Z,22.4
2018-02-12T20:37:07.718Z,22.5
2018-02-12T20:38:07.541Z,22.6
2018-02-12T20:39:07.470Z,22.6
2018-02-12T20:40:07.376Z,22.6
2018-02-12T20:41:07.520Z,22.6
2018-02-12T20:42:07.516Z,22.6
2018-02-12T20:43:07.009Z,22.6
2018-02-12T20:44:07.024Z,22.5
2018-02-12T20:45:07.206Z,22.6
2018-02-12T20:46:07.304Z,22.5
2018-02-12T20:47:06.752Z,22.5
2018-02-12T20:48:06.646Z,22.5
2018-02-12T20:49:06.594Z,22.4
2018-02-12T20:50:06.781Z,22.4
2018-02-12T20:51:06.823Z,22.4
2018-02-12T20:52:06.378Z,22.4
2018-02-12T20:53:06.484Z,22.4
2018-02-12T20:54:06.455Z,22.4
2018-02-12T20:55:06.344Z,22.4
2018-02-12T20:56:06.004Z,22.4
2018-02-12T20:57:06.099Z,22.3
2018-02-12T20:58:06.022Z,22.3
2018-02-12T20:59:06.023Z,22.3
2018-02-12T21:00:06.490Z,22.3
2018-02-12T21:01:05.992Z,22.3
2018-02-12T21:02:05.747Z,22.3
2018-02-12T21:03:05.665Z,22.3
2018-02-12T21:04:05.480Z,22.3
2018-02-12T21:05:05.436Z,22.3
2018-02-12T21:06:05.590Z,22.3
2018-02-12T21:07:05.493Z,22.3
2018-02-12T21:08:05.311Z,22.4
2018-02-12T21:09:05.216Z,22.4
2018-02-12T21:10:05.338Z,22.4
2018-02-12T21:11:05.012Z,22.4
2018-02-12T21:12:05.134Z,22.4
2018-02-12T21:13:04.961Z,22.4
2018-02-12T21:14:05.414Z,22.4
2018-02-12T21:15:04.863Z,22.4
2018-02-12T21:16:04.789Z,22.4
2018-02-12T21:17:04.574Z,22.4
2018-02-12T21:18:04.608Z,22.4
2018-02-12T21:19:04.684Z,22.4
2018-02-12T21:20:04.592Z,22.4
2018-02-12T21:21:04.410Z,22.4
2018-02-12T21:22:04.531Z,22.4
2018-02-12T21:23:04.366Z,22.4
2018-02-12T21:24:04.525Z,22.4
2018-02-12T21:25:03.963Z,22.4
2018-02-12T21:26:04.064Z,22.4
2018-02-12T21:27:03.992Z,22.4
2018-02-12T21:28:04.187Z,22.4
2018-02-12T21:29:03.987Z,22.3
2018-02-12T21:30:03.989Z,22.3
2018-02-12T21:31:03.943Z,22.4
2018-02-12T21:32:03.502Z,22.3
2018-02-12T21:33:03.668Z,22.3
2018-02-12T21:34:03.643Z,22.3
2018-02-12T21:35:03.729Z,22.4
2018-02-12T21:36:03.234Z,22.4
2018-02-12T21:37:03.190Z,22.4
2018-02-12T21:38:03.086Z,22.4
2018-02-12T21:39:03.169Z,22.4
2018-02-12T21:40:03.070Z,22.4
2018-02-12T21:41:02.888Z,22.4
2018-02-12T21:42:03.330Z,22.4
2018-02-12T21:43:02.748Z,22.4
2018-02-12T21:44:02.817Z,22.4
2018-02-12T21:45:03.177Z,22.4
2018-02-12T21:46:02.595Z,22.4
2018-02-12T21:47:02.590Z,22.4
2018-02-12T21:48:02.454Z,22.4
2018-02-12T21:49:02.296Z,22.4
2018-02-12T21:50:02.912Z,22.4
2018-02-12T21:51:02.264Z,22.4
2018-02-12T21:52:02.065Z,22.4
2018-02-12T21:53:01.990Z,22.4
2018-02-12T21:54:01.909Z,22.4
2018-02-12T21:55:01.941Z,22.3
2018-02-12T21:56:02.030Z,22.3
2018-02-12T21:57:01.820Z,22.3
2018-02-12T21:58:01.613Z,22.3